Time;durP1;ratioP1;P1;durP2;ratioP2;P2;SDS_P1;SDS_P2;PMS_P1;PMS_P2;Temp;Humidity;BMP_temperature;BMP_pressure;BME280_temperature;BME280_humidity;BME280_pressure;Samples;Min_cycle;Max_cycle;Signal;HPM_P1;HPM_P2
2021/01/05 00:00:14;;;;;;;84.18;36.50;;;;;;;10.35;97.41;98909.84;6194298;23;20056;-70
2021/01/05 00:02:39;;;;;;;73.00;35.70;;;;;;;10.36;96.79;98898.25;6194762;23;20059;-70
2021/01/05 00:05:06;;;;;;;80.85;36.67;;;;;;;10.47;95.08;98903.13;6194276;23;20005;-70
2021/01/05 00:07:32;;;;;;;80.38;36.25;;;;;;;10.29;95.65;98914.03;6194309;23;20001;-70
2021/01/05 00:09:57;;;;;;;78.90;35.50;;;;;;;10.21;96.74;98914.09;6193111;23;20316;-70
2021/01/05 00:12:23;;;;;;;78.95;35.67;;;;;;;10.26;96.78;98905.63;6194565;23;20302;-70
2021/01/05 00:14:49;;;;;;;80.07;35.30;;;;;;;10.17;96.72;98921.53;6192884;23;20008;-70
2021/01/05 00:17:20;;;;;;;71.53;34.35;;;;;;;10.18;97.37;98930.31;6194571;23;20180;-70
2021/01/05 00:19:46;;;;;;;85.53;35.55;;;;;;;10.16;96.96;98935.78;6194343;23;20013;-70
2021/01/05 00:22:13;;;;;;;77.97;34.33;;;;;;;10.15;97.08;98936.78;6194296;23;20048;-70
2021/01/05 00:24:39;;;;;;;74.90;36.13;;;;;;;10.19;97.18;98937.22;6194666;23;20356;-70
2021/01/05 00:27:04;;;;;;;87.90;34.72;;;;;;;10.21;96.95;98949.31;6194473;23;20040;-70
2021/01/05 00:29:31;;;;;;;86.95;36.72;;;;;;;10.14;96.97;98937.78;6194789;23;20291;-70
2021/01/05 00:32:13;;;;;;;87.97;39.25;;;;;;;10.04;97.31;98953.06;6194468;23;20009;-70
2021/01/05 00:34:40;;;;;;;91.00;41.40;;;;;;;10.03;97.68;98961.19;6194802;23;20005;-70
2021/01/05 00:37:05;;;;;;;96.13;42.28;;;;;;;10.16;96.53;98951.63;6194282;23;20299;-70
2021/01/05 00:39:31;;;;;;;90.50;40.63;;;;;;;10.07;97.36;98965.13;6194690;23;20005;-70
2021/01/05 00:41:56;;;;;;;94.40;41.53;;;;;;;9.90;98.21;98970.53;6194563;23;20203;-70
2021/01/05 00:44:22;;;;;;;92.65;42.65;;;;;;;9.97;97.89;98970.66;6194636;23;20009;-70
2021/01/05 00:46:47;;;;;;;90.65;43.47;;;;;;;9.84;97.68;98967.78;6194383;23;20322;-69
2021/01/05 00:49:13;;;;;;;88.20;40.25;;;;;;;9.89;97.29;98978.63;6192943;23;20031;-70
2021/01/05 00:51:38;;;;;;;89.10;39.58;;;;;;;9.88;97.62;98971.72;6194361;23;20234;-70
2021/01/05 00:54:04;;;;;;;83.10;38.00;;;;;;;9.87;97.31;98967.41;6194385;23;20330;-70
2021/01/05 00:56:29;;;;;;;82.28;38.35;;;;;;;9.91;97.33;98981.94;6194358;23;20009;-70
2021/01/05 00:58:55;;;;;;;77.85;37.13;;;;;;;9.80;97.25;98975.22;6194343;23;20033;-70
2021/01/05 01:01:21;;;;;;;73.68;36.00;;;;;;;9.87;96.66;98972.69;6194117;23;20004;-70
2021/01/05 01:03:50;;;;;;;75.30;35.08;;;;;;;9.99;95.49;98960.72;6192757;23;20069;-70
2021/01/05 01:06:17;;;;;;;72.32;34.08;;;;;;;9.82;96.27;98967.94;6194631;23;20005;-70
2021/01/05 01:08:43;;;;;;;69.70;32.58;;;;;;;9.88;96.13;98972.53;6194489;23;20005;-70
2021/01/05 01:11:10;;;;;;;69.68;33.72;;;;;;;9.90;95.53;98975.00;6194207;23;20055;-70
2021/01/05 01:13:35;;;;;;;64.47;32.17;;;;;;;9.92;95.84;98981.75;6194066;23;20291;-70
2021/01/05 01:16:01;;;;;;;67.00;33.05;;;;;;;9.88;95.84;98977.81;6194240;23;20290;-70
2021/01/05 01:18:26;;;;;;;72.10;33.00;;;;;;;10.03;95.23;98979.69;6194580;23;20069;-70
2021/01/05 01:20:51;;;;;;;66.95;32.90;;;;;;;10.00;94.77;98977.41;6196055;23;20005;-70
2021/01/05 01:23:18;;;;;;;74.80;32.75;;;;;;;10.03;94.62;98979.69;6196019;23;20024;-70
2021/01/05 01:25:43;;;;;;;66.30;31.42;;;;;;;9.97;94.33;98990.97;6196077;23;20029;-70
2021/01/05 01:28:09;;;;;;;62.47;31.20;;;;;;;9.87;94.38;99001.78;6196198;23;20005;-70
2021/01/05 01:30:34;;;;;;;67.82;32.33;;;;;;;9.93;94.66;99001.91;6195914;23;20005;-70
2021/01/05 01:33:00;;;;;;;61.83;30.25;;;;;;;10.05;93.78;98999.69;6196129;23;20092;-70
2021/01/05 01:35:25;;;;;;;63.00;29.88;;;;;;;10.03;93.78;99009.63;6196185;23;20012;-70
2021/01/05 01:37:51;;;;;;;64.20;29.10;;;;;;;10.17;92.50;99016.78;6195996;23;20226;-70
2021/01/05 01:40:33;;;;;;;58.65;27.80;;;;;;;10.11;91.93;99021.94;6195848;23;20102;-70
2021/01/05 01:43:00;;;;;;;60.00;26.05;;;;;;;9.95;92.38;99020.25;6196006;23;20056;-70
2021/01/05 01:45:26;;;;;;;50.38;24.42;;;;;;;9.97;90.51;99023.53;6195697;23;20044;-70
2021/01/05 01:47:53;;;;;;;54.30;25.02;;;;;;;9.78;92.14;99030.09;6196009;23;20053;-70
2021/01/05 01:50:25;;;;;;;61.08;26.42;;;;;;;9.73;93.27;99035.09;6195954;23;20009;-70
2021/01/05 01:53:03;;;;;;;54.88;25.23;;;;;;;9.65;94.02;99032.50;6195896;23;20005;-70
2021/01/05 01:56:00;;;;;;;50.25;25.02;;;;;;;9.82;93.50;99044.63;6195768;23;20009;-70
2021/01/05 01:58:32;;;;;;;58.78;25.13;;;;;;;9.90;93.50;99056.97;6195848;23;20005;-70
2021/01/05 02:01:29;;;;;;;51.78;25.00;;;;;;;9.84;93.57;99055.03;6195994;23;20040;-70
2021/01/05 02:04:15;;;;;;;50.63;24.67;;;;;;;10.01;91.34;99050.47;6194485;23;20066;-70
2021/01/05 02:07:11;;;;;;;48.50;24.45;;;;;;;9.92;92.40;99047.88;6193473;23;20032;-70
2021/01/05 02:09:42;;;;;;;55.38;26.33;;;;;;;10.00;92.01;99054.09;6196089;23;20005;-68
2021/01/05 02:12:36;;;;;;;50.88;27.05;;;;;;;9.89;91.10;99060.63;6195825;23;20477;-69
2021/01/05 02:15:12;;;;;;;48.03;25.52;;;;;;;9.78;91.36;99053.06;6150030;23;20013;-68
2021/01/05 02:18:08;;;;;;;47.20;23.67;;;;;;;9.72;91.46;99067.81;6195695;23;20040;-68
2021/01/05 02:20:40;;;;;;;47.67;24.25;;;;;;;9.65;92.08;99071.31;6194042;23;20036;-68
2021/01/05 02:23:30;;;;;;;45.17;23.52;;;;;;;9.76;92.12;99068.28;6195361;23;20061;-68
2021/01/05 02:25:59;;;;;;;44.50;24.05;;;;;;;9.67;92.44;99075.44;6195474;23;20004;-68
2021/01/05 02:28:33;;;;;;;43.38;23.10;;;;;;;9.67;91.94;99070.16;6195719;23;20031;-68
2021/01/05 02:31:10;;;;;;;39.97;22.20;;;;;;;9.76;91.73;99070.94;6194748;23;20011;-68
2021/01/05 02:34:08;;;;;;;45.83;21.83;;;;;;;9.80;91.65;99074.88;6195658;23;20016;-68
2021/01/05 02:36:39;;;;;;;40.72;21.17;;;;;;;9.54;92.04;99070.69;6173044;23;20048;-68
2021/01/05 02:39:41;;;;;;;37.97;19.00;;;;;;;9.47;92.26;99072.38;6195532;23;20012;-68
2021/01/05 02:42:44;;;;;;;42.38;20.63;;;;;;;9.49;92.64;99066.94;6195480;23;20191;-68
2021/01/05 02:45:18;;;;;;;37.22;20.05;;;;;;;9.28;93.25;99075.41;6195105;23;20013;-68
2021/01/05 02:47:44;;;;;;;41.20;18.65;;;;;;;9.24;94.12;99066.97;6195583;23;20290;-68
2021/01/05 02:50:37;;;;;;;40.90;18.55;;;;;;;9.16;94.85;99064.38;6195180;23;20012;-69
2021/01/05 02:53:12;;;;;;;41.50;19.02;;;;;;;9.26;94.95;99074.75;6193706;23;20016;-69
2021/01/05 02:56:15;;;;;;;38.47;18.70;;;;;;;9.27;95.11;99076.38;6195139;23;20005;-70
2021/01/05 02:59:22;;;;;;;34.05;19.02;;;;;;;9.18;95.83;99080.03;6194820;23;20009;-68
2021/01/05 03:02:12;;;;;;;43.17;20.80;;;;;;;9.24;95.77;99088.13;6139691;23;20005;-68
2021/01/05 03:04:37;;;;;;;53.65;24.75;;;;;;;9.16;95.53;99090.78;6195482;23;20021;-68
2021/01/05 03:07:27;;;;;;;50.25;23.30;;;;;;;9.23;95.73;99097.03;6195111;23;20025;-68
2021/01/05 03:09:58;;;;;;;44.72;23.20;;;;;;;9.19;96.36;99098.38;6195141;23;20008;-68
2021/01/05 03:12:54;;;;;;;45.00;23.15;;;;;;;9.34;96.35;99103.78;6195583;23;20187;-68
2021/01/05 03:15:36;;;;;;;49.22;23.77;;;;;;;9.32;95.58;99105.75;6194784;23;20005;-68
2021/01/05 03:18:29;;;;;;;37.67;17.90;;;;;;;9.23;96.42;99112.06;6195253;23;20064;-68
2021/01/05 03:21:01;;;;;;;23.85;12.40;;;;;;;9.28;96.32;99107.91;6194434;23;20214;-68
2021/01/05 03:23:29;;;;;;;20.65;10.13;;;;;;;9.27;96.10;99110.72;6195007;23;20009;-68
2021/01/05 03:25:58;;;;;;;18.90;9.40;;;;;;;9.31;95.56;99121.78;6194926;23;20028;-68
2021/01/05 03:28:26;;;;;;;15.88;8.57;;;;;;;9.39;95.37;99121.78;6195223;23;20286;-69
2021/01/05 03:31:03;;;;;;;18.10;8.38;;;;;;;9.23;95.96;99131.38;6194810;23;20191;-68
2021/01/05 03:33:29;;;;;;;14.95;7.70;;;;;;;9.28;95.84;99129.06;6195085;23;20013;-68
2021/01/05 03:35:54;;;;;;;13.00;7.35;;;;;;;9.32;95.86;99131.34;6194765;23;20040;-68
2021/01/05 03:38:19;;;;;;;15.55;7.65;;;;;;;9.38;95.88;99136.81;6195171;23;20009;-68
2021/01/05 03:40:45;;;;;;;13.95;7.20;;;;;;;9.21;96.10;99143.94;6194819;23;20025;-68
2021/01/05 03:43:10;;;;;;;13.13;7.07;;;;;;;9.23;96.10;99141.94;6194623;23;20263;-68
2021/01/05 03:45:36;;;;;;;12.43;7.03;;;;;;;9.19;96.03;99148.56;6194711;23;20001;-68
2021/01/05 03:48:01;;;;;;;11.05;6.78;;;;;;;8.95;96.43;99130.94;6193395;23;20013;-68
2021/01/05 03:50:27;;;;;;;13.05;7.57;;;;;;;9.22;96.13;99157.97;6194553;23;20008;-68
2021/01/05 03:52:52;;;;;;;13.70;7.78;;;;;;;9.17;95.97;99157.63;6194725;23;20283;-68
2021/01/05 03:55:18;;;;;;;16.80;8.35;;;;;;;9.13;96.43;99172.16;6194512;23;20005;-68
2021/01/05 03:57:45;;;;;;;17.83;9.63;;;;;;;9.43;94.79;99168.84;6195005;23;20009;-68
2021/01/05 04:00:17;;;;;;;15.75;8.55;;;;;;;9.41;95.45;99175.28;6194274;23;20013;-68
2021/01/05 04:02:44;;;;;;;14.48;9.43;;;;;;;9.29;95.41;99175.63;6194957;23;20005;-68
2021/01/05 04:05:14;;;;;;;16.77;9.25;;;;;;;9.36;95.26;99181.06;6194387;23;20001;-68
2021/01/05 04:07:40;;;;;;;17.65;9.38;;;;;;;9.46;94.41;99189.66;6195192;23;20009;-69
2021/01/05 04:10:06;;;;;;;18.98;9.77;;;;;;;9.50;94.54;99200.72;6192909;23;20077;-68
2021/01/05 04:12:32;;;;;;;16.15;8.82;;;;;;;9.52;94.45;99204.84;6193372;23;20259;-68
2021/01/05 04:14:57;;;;;;;14.82;8.32;;;;;;;9.47;94.80;99201.06;6194289;23;20001;-69
2021/01/05 04:17:23;;;;;;;15.15;8.57;;;;;;;9.40;94.30;99215.94;6194439;23;19997;-68
2021/01/05 04:19:48;;;;;;;12.95;7.38;;;;;;;9.41;95.21;99213.13;6194706;23;20004;-68
2021/01/05 04:22:14;;;;;;;13.07;7.32;;;;;;;9.46;94.34;99213.44;6194745;23;19996;-68
2021/01/05 04:24:39;;;;;;;14.35;7.22;;;;;;;9.48;93.65;99218.56;6194755;23;20009;-68
2021/01/05 04:27:04;;;;;;;14.73;8.30;;;;;;;9.44;93.83;99218.06;6195225;23;19997;-69
2021/01/05 04:29:30;;;;;;;13.65;7.88;;;;;;;9.56;93.14;99221.19;6194845;23;20092;-69
2021/01/05 04:31:55;;;;;;;12.80;6.88;;;;;;;9.48;93.04;99229.94;6194378;23;20001;-68
2021/01/05 04:34:21;;;;;;;10.77;6.60;;;;;;;9.44;93.55;99233.09;6194875;23;20164;-68
2021/01/05 04:36:46;;;;;;;15.02;7.43;;;;;;;9.34;94.04;99235.06;6194409;23;20063;-68
2021/01/05 04:39:12;;;;;;;12.80;7.45;;;;;;;9.37;93.94;99240.03;6194571;23;20005;-68
2021/01/05 04:42:10;;;;;;;10.85;6.10;;;;;;;9.24;93.96;99241.34;6193078;23;20012;-68
2021/01/05 04:44:48;;;;;;;9.63;5.20;;;;;;;9.32;94.15;99247.59;6193994;23;20012;-68
2021/01/05 04:47:19;;;;;;;14.70;7.30;;;;;;;9.26;94.06;99244.63;6194409;23;19997;-68
2021/01/05 04:50:09;;;;;;;12.50;6.97;;;;;;;9.33;93.73;99249.25;6194500;23;20005;-68
2021/01/05 04:52:57;;;;;;;10.70;5.28;;;;;;;9.28;93.18;99247.13;6194179;23;20190;-68
2021/01/05 04:55:54;;;;;;;9.15;4.63;;;;;;;9.21;94.54;99248.78;6196075;23;20330;-68
2021/01/05 04:58:47;;;;;;;11.00;5.97;;;;;;;9.06;95.16;99264.44;6196210;23;20032;-68
2021/01/05 05:01:25;;;;;;;11.38;6.85;;;;;;;9.11;94.22;99258.66;6196130;23;20008;-69
2021/01/05 05:04:04;;;;;;;13.65;7.43;;;;;;;9.21;94.75;99268.09;6196520;23;20073;-68
2021/01/05 05:06:35;;;;;;;13.45;6.32;;;;;;;9.23;93.80;99275.84;6196670;23;20001;-68
2021/01/05 05:09:23;;;;;;;12.40;6.47;;;;;;;9.28;93.57;99274.34;6196497;23;20001;-68
2021/01/05 05:12:03;;;;;;;8.88;5.28;;;;;;;9.27;93.10;99283.28;6194892;23;20048;-68
2021/01/05 05:14:47;;;;;;;8.23;4.72;;;;;;;9.25;93.16;99279.16;6194862;23;20190;-69
2021/01/05 05:17:34;;;;;;;14.63;8.55;;;;;;;9.46;91.70;99282.16;6196320;23;20519;-68
2021/01/05 05:20:17;;;;;;;12.90;6.57;;;;;;;9.40;91.53;99285.44;6196000;23;20387;-68
2021/01/05 05:23:01;;;;;;;15.77;8.00;;;;;;;9.40;91.61;99290.75;6196134;23;20023;-68
2021/01/05 05:25:36;;;;;;;16.83;6.75;;;;;;;9.41;91.35;99300.31;6196180;23;20009;-68
2021/01/05 05:28:12;;;;;;;15.38;6.88;;;;;;;9.40;91.52;99296.03;6196414;23;20226;-68
2021/01/05 05:30:40;;;;;;;12.60;5.97;;;;;;;9.39;91.40;99299.66;6196042;23;20241;-68
2021/01/05 05:33:27;;;;;;;9.02;5.43;;;;;;;9.57;90.58;99297.66;6196160;23;20187;-69
2021/01/05 05:35:57;;;;;;;11.98;5.53;;;;;;;9.62;90.14;99297.16;6195976;23;20121;-68
2021/01/05 05:38:52;;;;;;;17.10;7.93;;;;;;;9.63;89.87;99301.47;6196226;23;20028;-69
2021/01/05 05:41:33;;;;;;;14.60;8.30;;;;;;;9.60;90.07;99301.78;6196332;23;20044;-68
2021/01/05 05:44:01;;;;;;;10.80;6.88;;;;;;;9.75;88.07;99309.88;6195637;23;20004;-68
2021/01/05 05:46:36;;;;;;;11.50;5.95;;;;;;;9.68;88.52;99311.53;6195920;23;20005;-68
2021/01/05 05:49:13;;;;;;;17.00;7.97;;;;;;;9.77;87.19;99321.09;6196203;23;20009;-68
2021/01/05 05:51:49;;;;;;;15.88;8.95;;;;;;;9.72;87.03;99318.97;6195783;23;20001;-68
2021/01/05 05:54:21;;;;;;;18.13;10.18;;;;;;;9.63;87.27;99327.06;6196052;23;20005;-69
2021/01/05 05:57:05;;;;;;;19.75;9.98;;;;;;;9.83;86.50;99333.66;6195972;23;20013;-68
2021/01/05 05:59:39;;;;;;;19.35;10.93;;;;;;;9.80;86.74;99336.63;6195472;23;20025;-68
2021/01/05 06:02:04;;;;;;;16.75;10.23;;;;;;;9.78;87.11;99343.91;6195607;23;20314;-69
2021/01/05 06:04:33;;;;;;;18.90;9.40;;;;;;;9.81;85.57;99339.13;6195947;23;20076;-69
2021/01/05 06:06:58;;;;;;;12.73;7.93;;;;;;;9.74;86.17;99342.59;6195675;23;20028;-70
2021/01/05 06:09:24;;;;;;;10.77;6.93;;;;;;;9.63;86.18;99348.22;6195419;23;20067;-70
2021/01/05 06:11:54;;;;;;;6.70;4.15;;;;;;;9.71;85.31;99362.25;6194355;23;20005;-70
2021/01/05 06:14:20;;;;;;;7.43;3.55;;;;;;;9.59;85.30;99358.28;6196027;23;20009;-70
2021/01/05 06:16:45;;;;;;;5.82;3.30;;;;;;;9.58;86.21;99359.28;6195990;23;20230;-70
2021/01/05 06:19:11;;;;;;;5.28;2.92;;;;;;;9.57;85.63;99363.75;6195942;23;20113;-70
2021/01/05 06:21:36;;;;;;;5.18;2.63;;;;;;;9.50;85.34;99373.31;6194164;23;20024;-70
2021/01/05 06:24:02;;;;;;;7.30;3.50;;;;;;;9.66;84.62;99376.97;6193908;23;20017;-70
2021/01/05 06:26:27;;;;;;;4.53;3.13;;;;;;;9.52;84.54;99379.28;6195609;23;20005;-70
2021/01/05 06:28:53;;;;;;;5.95;3.10;;;;;;;9.56;84.66;99387.69;6195917;23;20035;-70
2021/01/05 06:31:18;;;;;;;5.78;2.78;;;;;;;9.45;84.59;99391.50;6195419;23;20008;-70
2021/01/05 06:33:44;;;;;;;15.20;5.70;;;;;;;9.49;84.15;99399.91;6195941;23;20029;-70
2021/01/05 06:36:09;;;;;;;5.80;3.00;;;;;;;9.50;83.40;99389.19;6195714;23;20273;-70
2021/01/05 06:38:35;;;;;;;2.92;2.17;;;;;;;9.63;83.46;99396.63;6195234;23;20064;-70
2021/01/05 06:41:01;;;;;;;3.45;2.70;;;;;;;9.43;83.82;99392.66;6195359;23;20001;-70
2021/01/05 06:43:26;;;;;;;6.13;3.40;;;;;;;9.62;83.25;99410.84;6193785;23;20008;-70
2021/01/05 06:45:52;;;;;;;8.38;4.07;;;;;;;9.53;83.66;99410.00;6195265;23;20331;-70
2021/01/05 06:48:17;;;;;;;7.10;4.22;;;;;;;9.66;83.83;99414.81;6193987;23;20017;-70
2021/01/05 06:50:42;;;;;;;8.40;4.70;;;;;;;9.65;84.23;99422.91;6195205;23;20001;-70
2021/01/05 06:53:08;;;;;;;10.07;6.57;;;;;;;9.75;84.03;99428.84;6195304;23;20060;-70
2021/01/05 06:55:33;;;;;;;19.10;10.05;;;;;;;9.79;83.65;99440.75;6195248;23;20096;-70
2021/01/05 06:57:59;;;;;;;24.80;10.63;;;;;;;9.81;83.43;99434.31;6195432;23;20009;-70
2021/01/05 07:00:27;;;;;;;30.40;12.95;;;;;;;9.92;83.21;99435.81;6194945;23;20060;-70
2021/01/05 07:02:53;;;;;;;36.35;14.98;;;;;;;10.00;82.90;99441.09;6195272;23;20016;-70
2021/01/05 07:05:19;;;;;;;32.72;14.32;;;;;;;10.06;82.13;99440.44;6194953;23;20254;-70
2021/01/05 07:07:46;;;;;;;21.58;9.95;;;;;;;10.02;82.65;99441.75;6195067;23;20051;-70
2021/01/05 07:10:13;;;;;;;18.17;10.05;;;;;;;10.06;82.71;99448.38;6195243;23;20005;-70
2021/01/05 07:12:38;;;;;;;16.67;10.32;;;;;;;10.13;82.43;99445.88;6195259;23;20016;-70
2021/01/05 07:15:08;;;;;;;15.63;9.80;;;;;;;9.95;83.08;99455.81;6195300;23;20001;-70
2021/01/05 07:17:34;;;;;;;17.42;9.63;;;;;;;9.88;83.01;99466.22;6194782;23;20001;-70
2021/01/05 07:20:00;;;;;;;19.23;9.02;;;;;;;9.90;83.23;99462.41;6195161;23;20032;-69
2021/01/05 07:22:25;;;;;;;18.63;10.23;;;;;;;10.25;82.63;99457.81;6194841;23;20104;-70
2021/01/05 07:24:50;;;;;;;22.38;10.55;;;;;;;10.41;83.52;99464.94;6193265;23;20013;-70
2021/01/05 07:27:16;;;;;;;31.08;14.77;;;;;;;10.51;81.45;99470.88;6195120;23;20029;-70
2021/01/05 07:29:41;;;;;;;19.35;10.02;;;;;;;10.68;79.38;99464.53;6195424;23;20029;-70
2021/01/05 07:32:07;;;;;;;12.35;7.00;;;;;;;10.50;80.53;99474.50;6194817;23;20001;-70
2021/01/05 07:34:37;;;;;;;11.25;6.28;;;;;;;10.62;81.09;99475.00;6195435;23;20076;-70
2021/01/05 07:37:06;;;;;;;10.13;4.88;;;;;;;10.90;79.87;99472.75;6195492;23;20256;-68
2021/01/05 07:39:33;;;;;;;16.88;8.10;;;;;;;10.97;79.90;99476.38;6194562;23;20287;-68
2021/01/05 07:42:21;;;;;;;23.88;10.68;;;;;;;11.02;80.41;99472.22;6194886;23;20052;-67
2021/01/05 07:44:50;;;;;;;19.70;10.50;;;;;;;11.05;80.81;99479.00;6194579;23;20361;-67
2021/01/05 07:47:17;;;;;;;25.05;12.15;;;;;;;11.09;80.80;99480.31;6193344;23;20005;-68
2021/01/05 07:49:44;;;;;;;16.67;9.38;;;;;;;11.27;79.63;99480.06;6194691;23;20064;-68
2021/01/05 07:52:18;;;;;;;15.43;8.15;;;;;;;11.33;78.75;99479.38;6194583;23;20028;-68
2021/01/05 07:54:43;;;;;;;9.98;5.18;;;;;;;11.22;78.26;99477.94;6194567;23;20009;-68
2021/01/05 07:57:09;;;;;;;6.90;4.13;;;;;;;11.35;77.10;99480.03;6194732;23;20000;-68
2021/01/05 07:59:34;;;;;;;5.95;3.30;;;;;;;11.33;75.53;99482.84;6193054;23;20266;-69
2021/01/05 08:01:59;;;;;;;5.55;3.33;;;;;;;11.39;75.63;99491.94;6194617;23;20073;-68
2021/01/05 08:04:25;;;;;;;6.13;3.72;;;;;;;11.42;76.60;99489.75;6194305;23;20321;-68
2021/01/05 08:06:50;;;;;;;5.97;3.55;;;;;;;11.40;76.47;99494.41;6193130;23;20246;-69
2021/01/05 08:09:16;;;;;;;8.38;4.43;;;;;;;11.70;75.95;99502.56;6194306;23;20016;-68
2021/01/05 08:11:41;;;;;;;8.98;4.35;;;;;;;11.76;75.22;99505.34;6194643;23;20008;-68
2021/01/05 08:14:07;;;;;;;9.95;4.80;;;;;;;11.78;75.63;99506.03;6194698;23;20015;-68
2021/01/05 08:16:32;;;;;;;10.43;5.15;;;;;;;11.66;75.24;99511.88;6194648;23;20045;-68
2021/01/05 08:18:58;;;;;;;8.73;3.80;;;;;;;11.79;75.77;99517.47;6194771;23;20009;-69
2021/01/05 08:21:27;;;;;;;7.57;4.75;;;;;;;11.81;75.27;99523.41;6194521;23;20000;-68
2021/01/05 08:23:53;;;;;;;10.18;5.28;;;;;;;11.86;75.25;99523.72;6194560;23;20012;-68
2021/01/05 08:26:19;;;;;;;6.60;4.20;;;;;;;11.87;75.38;99522.72;6192995;23;20001;-68
2021/01/05 08:28:47;;;;;;;6.95;4.15;;;;;;;11.79;75.99;99523.59;6194717;23;20009;-68
2021/01/05 08:31:14;;;;;;;9.13;4.60;;;;;;;11.83;75.90;99524.88;6194313;23;20008;-68
2021/01/05 08:33:40;;;;;;;11.35;5.30;;;;;;;11.95;75.78;99527.97;6194613;23;20013;-68
2021/01/05 08:36:06;;;;;;;7.82;4.75;;;;;;;11.95;75.24;99525.31;6194242;23;20337;-69
2021/01/05 08:38:31;;;;;;;9.68;5.60;;;;;;;12.07;74.44;99523.91;6194192;23;20016;-68
2021/01/05 08:40:57;;;;;;;7.80;4.45;;;;;;;11.96;75.22;99529.63;6194337;23;20049;-68
2021/01/05 08:43:22;;;;;;;11.57;6.53;;;;;;;12.15;76.41;99528.31;6194586;23;20013;-69
2021/01/05 08:45:48;;;;;;;7.38;4.65;;;;;;;12.04;76.62;99512.81;6194284;23;20001;-68
2021/01/05 08:48:13;;;;;;;8.15;4.93;;;;;;;12.11;76.26;99529.69;6194288;23;20029;-69
2021/01/05 08:50:39;;;;;;;8.32;4.45;;;;;;;12.31;75.98;99527.38;6194166;23;20032;-70
2021/01/05 08:53:11;;;;;;;9.43;4.30;;;;;;;12.34;75.54;99527.84;6192775;23;20072;-70
2021/01/05 08:55:39;;;;;;;9.95;4.45;;;;;;;12.47;77.08;99525.41;6192852;23;20105;-70
2021/01/05 08:58:05;;;;;;;11.20;5.03;;;;;;;12.58;75.30;99518.88;6194594;23;20072;-69
2021/01/05 09:00:30;;;;;;;9.52;5.03;;;;;;;12.65;75.38;99522.44;6194226;23;20009;-68
2021/01/05 09:02:56;;;;;;;14.25;6.55;;;;;;;12.62;72.61;99524.63;6192835;23;20100;-68
2021/01/05 09:05:23;;;;;;;16.52;6.60;;;;;;;12.64;72.52;99520.81;6193965;23;20019;-68
2021/01/05 09:07:48;;;;;;;11.93;4.97;;;;;;;12.71;72.49;99527.03;6194527;23;20055;-68
2021/01/05 09:10:20;;;;;;;14.93;5.65;;;;;;;12.69;72.68;99525.56;6194078;23;20005;-68
2021/01/05 09:12:46;;;;;;;13.45;5.60;;;;;;;12.54;73.98;99514.91;6194424;23;20048;-68
2021/01/05 09:15:14;;;;;;;9.43;4.60;;;;;;;12.71;71.93;99513.75;6194069;23;20000;-68
2021/01/05 09:17:42;;;;;;;7.13;3.90;;;;;;;12.80;71.33;99519.81;6194317;23;20009;-68
2021/01/05 09:20:08;;;;;;;6.60;3.97;;;;;;;12.71;72.29;99516.41;6194028;23;20008;-69
2021/01/05 09:22:33;;;;;;;6.88;3.67;;;;;;;12.90;69.30;99520.38;6194131;23;20001;-68
2021/01/05 09:24:59;;;;;;;5.22;3.50;;;;;;;12.74;67.62;99523.19;6193841;23;20316;-68
2021/01/05 09:27:24;;;;;;;11.35;3.67;;;;;;;12.81;68.35;99521.47;6194183;23;20008;-69
2021/01/05 09:29:50;;;;;;;5.78;3.42;;;;;;;12.74;67.27;99531.16;6194011;23;20053;-68
2021/01/05 09:32:15;;;;;;;7.22;4.00;;;;;;;12.72;68.65;99535.84;6194116;23;20027;-69
2021/01/05 09:34:41;;;;;;;3.95;2.95;;;;;;;12.74;65.33;99532.00;6194631;23;20016;-68
2021/01/05 09:37:07;;;;;;;4.10;2.70;;;;;;;12.90;65.19;99531.00;6194142;23;20001;-68
2021/01/05 09:39:33;;;;;;;3.97;2.80;;;;;;;12.93;65.03;99524.50;6194746;23;20009;-69
2021/01/05 09:42:02;;;;;;;5.10;3.10;;;;;;;12.86;63.73;99519.09;6196086;23;20313;-68
2021/01/05 09:44:28;;;;;;;16.60;7.10;;;;;;;12.82;64.15;99519.63;6196303;23;20068;-68
2021/01/05 09:46:56;;;;;;;6.75;3.90;;;;;;;12.83;64.23;99506.16;6195941;23;20001;-68
2021/01/05 09:49:23;;;;;;;5.97;3.63;;;;;;;12.81;61.58;99512.66;6196486;23;20056;-69
2021/01/05 09:51:49;;;;;;;3.83;2.85;;;;;;;12.70;61.87;99505.97;6196038;23;20056;-66
2021/01/05 09:54:16;;;;;;;3.97;3.00;;;;;;;12.79;61.61;99508.34;6196244;23;20009;-69
2021/01/05 09:56:42;;;;;;;4.30;3.10;;;;;;;12.83;60.42;99510.66;6194777;23;20005;-67
2021/01/05 09:59:07;;;;;;;6.55;3.55;;;;;;;12.91;61.41;99516.69;6195647;23;20013;-69
2021/01/05 10:01:34;;;;;;;4.90;2.55;;;;;;;12.89;62.13;99520.56;6195959;23;20043;-68
2021/01/05 10:03:59;;;;;;;4.78;3.22;;;;;;;12.94;60.55;99502.22;6196077;23;20009;-69
2021/01/05 10:06:33;;;;;;;6.82;3.10;;;;;;;12.84;59.85;99514.97;6194512;23;20007;-68
2021/01/05 10:09:00;;;;;;;6.88;3.10;;;;;;;12.85;61.68;99509.47;6196084;23;20334;-67
2021/01/05 10:11:33;;;;;;;5.13;3.15;;;;;;;12.95;60.68;99506.53;6195888;23;20199;-69
2021/01/05 10:13:58;;;;;;;6.35;3.63;;;;;;;12.90;61.49;99506.25;6195583;23;20016;-68
2021/01/05 10:16:24;;;;;;;7.03;3.35;;;;;;;13.01;61.69;99511.94;6195988;23;20001;-69
2021/01/05 10:18:49;;;;;;;15.35;6.25;;;;;;;13.04;60.52;99519.56;6195928;23;20064;-68
2021/01/05 10:21:15;;;;;;;8.13;4.03;;;;;;;13.09;61.58;99509.19;6194129;23;20020;-68
2021/01/05 10:23:41;;;;;;;7.13;3.90;;;;;;;13.14;59.45;99515.78;6195662;23;20076;-69
2021/01/05 10:26:08;;;;;;;12.02;5.88;;;;;;;13.18;61.41;99511.78;6195666;23;20001;-68
2021/01/05 10:28:33;;;;;;;34.53;20.67;;;;;;;13.13;61.05;99514.13;6195474;23;20032;-69
2021/01/05 10:31:00;;;;;;;22.20;14.63;;;;;;;13.25;61.27;99504.72;6195364;23;20295;-68
2021/01/05 10:33:27;;;;;;;5.47;3.20;;;;;;;13.13;59.45;99504.34;6195670;23;20009;-69
2021/01/05 10:35:52;;;;;;;5.47;3.70;;;;;;;13.15;60.35;99502.31;6193935;23;20012;-68
2021/01/05 10:38:19;;;;;;;4.47;3.53;;;;;;;13.26;58.71;99501.06;6195540;23;20009;-69
2021/01/05 10:40:45;;;;;;;2.85;2.22;;;;;;;13.05;56.69;99473.34;6193988;23;20035;-69
2021/01/05 10:43:10;;;;;;;4.18;2.20;;;;;;;13.28;56.13;99502.50;6195576;23;20056;-68
2021/01/05 10:45:40;;;;;;;2.28;1.77;;;;;;;13.27;54.54;99506.19;6195283;23;20001;-69
2021/01/05 10:48:05;;;;;;;4.97;2.35;;;;;;;13.24;56.43;99503.06;6195546;23;20009;-69
2021/01/05 10:50:31;;;;;;;6.85;3.58;;;;;;;13.34;57.79;99509.75;6195133;23;20365;-69
2021/01/05 10:52:56;;;;;;;5.85;2.17;;;;;;;13.35;55.72;99505.25;6195185;23;20333;-69
2021/01/05 10:55:22;;;;;;;6.13;3.17;;;;;;;13.40;54.58;99495.72;6195134;23;20314;-68
2021/01/05 10:57:49;;;;;;;2.60;1.90;;;;;;;13.32;52.64;99500.31;6195286;23;20064;-68
2021/01/05 11:00:19;;;;;;;4.55;2.13;;;;;;;13.30;54.36;99503.16;6194809;23;20009;-68
2021/01/05 11:02:45;;;;;;;4.28;2.10;;;;;;;13.35;55.70;99503.44;6195257;23;20013;-70
2021/01/05 11:05:15;;;;;;;3.88;2.03;;;;;;;13.23;53.19;99465.03;6194896;23;20315;-68
2021/01/05 11:07:43;;;;;;;3.42;2.55;;;;;;;13.43;54.52;99495.34;6195300;23;20009;-69
2021/01/05 11:10:10;;;;;;;4.72;2.28;;;;;;;13.31;55.24;99490.69;6194970;23;20001;-70
2021/01/05 11:12:35;;;;;;;5.03;2.35;;;;;;;13.39;55.87;99491.41;6195161;23;20012;-68
2021/01/05 11:15:01;;;;;;;3.40;2.22;;;;;;;13.35;55.27;99486.66;6194908;23;20012;-69
2021/01/05 11:17:26;;;;;;;5.30;2.38;;;;;;;13.40;52.38;99495.72;6195546;23;20060;-69
2021/01/05 11:19:51;;;;;;;2.50;2.00;;;;;;;13.48;52.29;99494.78;6195022;23;20087;-69
2021/01/05 11:22:19;;;;;;;9.98;4.28;;;;;;;13.45;53.25;99500.47;6194999;23;20009;-70
2021/01/05 11:24:45;;;;;;;8.45;4.25;;;;;;;13.44;52.78;99493.50;6195169;23;20172;-70
2021/01/05 11:27:12;;;;;;;3.38;2.28;;;;;;;13.48;52.91;99512.56;6195289;23;20001;-70
2021/01/05 11:29:38;;;;;;;22.95;8.65;;;;;;;13.36;53.00;99504.25;6195677;23;20033;-69
2021/01/05 11:32:09;;;;;;;4.18;2.40;;;;;;;13.26;52.47;99506.38;6194878;23;20302;-69
2021/01/05 11:34:36;;;;;;;2.78;2.20;;;;;;;13.27;52.97;99513.34;6195509;23;20013;-69
2021/01/05 11:37:07;;;;;;;3.28;2.38;;;;;;;13.35;52.94;99505.25;6195252;23;20187;-69
2021/01/05 11:39:33;;;;;;;2.55;1.80;;;;;;;13.41;51.86;99501.84;6195445;23;20061;-68
2021/01/05 11:42:00;;;;;;;3.95;1.92;;;;;;;13.36;52.05;99494.44;6195013;23;20020;-69